Time;durP1;ratioP1;P1;durP2;ratioP2;P2;SDS_P1;SDS_P2;PMS_P1;PMS_P2;Temp;Humidity;BMP_temperature;BMP_pressure;BME280_temperature;BME280_humidity;BME280_pressure;Samples;Min_cycle;Max_cycle;Signal;HPM_P1;HPM_P2
2022/03/04 00:03:52;;;;;;;33.60;22.02;;;;;;;;;;10272204;28;20069;-52
2022/03/04 00:08:52;;;;;;;21.95;16.45;;;;;;;;;;10270855;28;20068;-55
2022/03/04 00:13:50;;;;;;;55.22;33.60;;;;;;;;;;10272733;28;20072;-54
2022/03/04 00:19:06;;;;;;;19.15;14.50;;;;;;;;;;10273635;28;20477;-54
2022/03/04 00:24:07;;;;;;;23.65;14.85;;;;;;;;;;10272932;28;20119;-53
2022/03/04 00:29:05;;;;;;;17.58;12.65;;;;;;;;;;10275244;28;20077;-52
2022/03/04 00:34:06;;;;;;;15.35;13.15;;;;;;;;;;10275051;28;20072;-55
2022/03/04 00:39:07;;;;;;;20.25;14.27;;;;;;;;;;10274196;28;20103;-55
2022/03/04 00:44:06;;;;;;;19.10;14.15;;;;;;;;;;10271814;28;20060;-54
2022/03/04 00:49:04;;;;;;;42.00;24.75;;;;;;;;;;10275064;28;20078;-55
2022/03/04 00:54:03;;;;;;;26.17;18.02;;;;;;;;;;10274526;28;20080;-55
2022/03/04 00:59:02;;;;;;;20.00;15.07;;;;;;;;;;10273175;28;20092;-55
2022/03/04 01:04:01;;;;;;;18.23;14.07;;;;;;;;;;10273800;28;20124;-54
2022/03/04 01:08:59;;;;;;;16.88;14.80;;;;;;;;;;10277348;28;20124;-53
2022/03/04 01:13:57;;;;;;;17.58;12.77;;;;;;;;;;10277822;28;20064;-54
2022/03/04 01:18:57;;;;;;;20.92;13.18;;;;;;;;;;10278640;28;20076;-54
2022/03/04 01:23:55;;;;;;;45.85;26.52;;;;;;;;;;10269986;28;20090;-55
2022/03/04 01:28:53;;;;;;;20.83;15.95;;;;;;;;;;10269275;28;21314;-51
2022/03/04 01:33:51;;;;;;;15.00;12.18;;;;;;;;;;10272763;28;20528;-55
2022/03/04 01:38:51;;;;;;;18.92;14.75;;;;;;;;;;10272787;28;20148;-56
2022/03/04 01:43:49;;;;;;;14.90;12.18;;;;;;;;;;10272045;28;20099;-55
2022/03/04 01:48:48;;;;;;;16.40;13.90;;;;;;;;;;10289607;28;20072;-55
2022/03/04 01:53:46;;;;;;;61.08;31.90;;;;;;;;;;10272548;28;20081;-51
2022/03/04 01:58:46;;;;;;;18.65;13.40;;;;;;;;;;10272520;28;20076;-54
2022/03/04 02:03:44;;;;;;;18.08;13.60;;;;;;;;;;10271231;28;20045;-55
2022/03/04 02:08:42;;;;;;;16.80;14.50;;;;;;;;;;10271726;28;20088;-50
2022/03/04 02:13:42;;;;;;;16.88;12.88;;;;;;;;;;10272258;28;20085;-53
2022/03/04 02:18:45;;;;;;;15.98;13.93;;;;;;;;;;10263668;28;20061;-54
2022/03/04 02:23:44;;;;;;;19.17;15.10;;;;;;;;;;10269273;28;20486;-55
2022/03/04 02:28:44;;;;;;;21.65;15.40;;;;;;;;;;10283750;28;20103;-52
2022/03/04 02:33:42;;;;;;;18.42;14.00;;;;;;;;;;10270788;28;20513;-54
2022/03/04 02:38:41;;;;;;;15.77;11.90;;;;;;;;;;10270628;28;20088;-52
2022/03/04 02:43:41;;;;;;;21.13;14.55;;;;;;;;;;10270189;28;20072;-54
2022/03/04 02:48:39;;;;;;;15.77;12.52;;;;;;;;;;10270597;28;20080;-54
2022/03/04 02:53:37;;;;;;;22.20;15.27;;;;;;;;;;10269411;28;20092;-53
2022/03/04 02:58:35;;;;;;;24.02;15.85;;;;;;;;;;10262544;28;20057;-53
2022/03/04 03:03:35;;;;;;;20.83;14.20;;;;;;;;;;10288886;28;20077;-54
2022/03/04 03:08:33;;;;;;;17.08;13.35;;;;;;;;;;10268476;28;20533;-54
2022/03/04 03:13:35;;;;;;;21.65;16.20;;;;;;;;;;10269685;28;20528;-53
2022/03/04 03:18:35;;;;;;;18.30;14.25;;;;;;;;;;10269337;28;20048;-56
2022/03/04 03:23:34;;;;;;;18.90;14.65;;;;;;;;;;10268300;28;20084;-54
2022/03/04 03:28:32;;;;;;;23.20;17.45;;;;;;;;;;10269229;28;20496;-55
2022/03/04 03:33:31;;;;;;;23.88;14.57;;;;;;;;;;10268769;28;20075;-53
2022/03/04 03:38:31;;;;;;;17.67;14.27;;;;;;;;;;10267839;28;20469;-55
2022/03/04 03:43:30;;;;;;;16.38;13.93;;;;;;;;;;10262624;28;20081;-53
2022/03/04 03:48:28;;;;;;;21.08;14.98;;;;;;;;;;10262435;28;20064;-56
2022/03/04 03:53:27;;;;;;;23.25;17.25;;;;;;;;;;10261851;28;20484;-54
2022/03/04 03:58:27;;;;;;;55.97;32.10;;;;;;;;;;10288280;28;20080;-54
2022/03/04 04:03:26;;;;;;;22.80;15.93;;;;;;;;;;10260472;28;20485;-55
2022/03/04 04:08:24;;;;;;;19.50;15.48;;;;;;;;;;10267944;28;20072;-54
2022/03/04 04:13:22;;;;;;;17.20;14.45;;;;;;;;;;10268470;28;20080;-55
2022/03/04 04:18:22;;;;;;;17.15;14.63;;;;;;;;;;10268372;28;20099;-55
2022/03/04 04:23:21;;;;;;;269.65;127.68;;;;;;;;;;10268504;28;20076;-55
2022/03/04 04:28:19;;;;;;;188.45;99.43;;;;;;;;;;10267569;28;20072;-56
2022/03/04 04:33:17;;;;;;;371.48;170.25;;;;;;;;;;10267942;28;20076;-54
2022/03/04 04:38:23;;;;;;;196.40;99.85;;;;;;;;;;10267709;28;20064;-55
2022/03/04 04:43:21;;;;;;;280.33;139.48;;;;;;;;;;10270639;28;20068;-55
2022/03/04 04:48:20;;;;;;;162.15;92.38;;;;;;;;;;10279960;28;20073;-55
2022/03/04 04:53:18;;;;;;;173.02;90.18;;;;;;;;;;10279285;28;20069;-53
2022/03/04 04:58:18;;;;;;;125.25;76.95;;;;;;;;;;10278993;28;20103;-57
2022/03/04 05:03:16;;;;;;;184.90;111.72;;;;;;;;;;10296164;28;20095;-57
2022/03/04 05:08:14;;;;;;;375.60;188.13;;;;;;;;;;10274398;28;20072;-55
2022/03/04 05:13:13;;;;;;;178.48;92.28;;;;;;;;;;10274092;28;20044;-57
2022/03/04 05:18:12;;;;;;;245.40;110.22;;;;;;;;;;10273953;28;20040;-52
2022/03/04 05:23:11;;;;;;;149.43;83.60;;;;;;;;;;10273166;28;20084;-54
2022/03/04 05:28:09;;;;;;;135.18;79.13;;;;;;;;;;10272737;28;20472;-55
2022/03/04 05:33:08;;;;;;;137.85;85.63;;;;;;;;;;10261404;28;20624;-54
2022/03/04 05:38:07;;;;;;;98.57;63.40;;;;;;;;;;10266366;28;20072;-54
2022/03/04 05:43:06;;;;;;;52.72;36.50;;;;;;;;;;10250895;28;20077;-51
2022/03/04 05:48:04;;;;;;;62.15;41.25;;;;;;;;;;10269710;28;20075;-54
2022/03/04 05:53:03;;;;;;;53.15;35.20;;;;;;;;;;10257689;28;20071;-50
2022/03/04 05:58:04;;;;;;;59.13;39.50;;;;;;;;;;10261949;28;20103;-53
2022/03/04 06:03:02;;;;;;;69.07;45.22;;;;;;;;;;10265259;28;20067;-55
2022/03/04 06:08:01;;;;;;;99.65;61.53;;;;;;;;;;10252397;28;20068;-54
2022/03/04 06:12:59;;;;;;;88.88;49.67;;;;;;;;;;10287372;28;20072;-55
2022/03/04 06:17:59;;;;;;;51.38;34.28;;;;;;;;;;10291120;28;20071;-53
2022/03/04 06:22:58;;;;;;;55.95;39.63;;;;;;;;;;10253856;28;20514;-55
2022/03/04 06:27:57;;;;;;;60.38;36.17;;;;;;;;;;10255358;28;20079;-54
2022/03/04 06:33:30;;;;;;;32.47;23.83;;;;;;;;;;10244387;28;20064;-53
2022/03/04 06:38:17;;;;;;;58.58;38.58;;;;;;;;;;10251877;28;20486;-55
2022/03/04 06:43:15;;;;;;;34.95;22.73;;;;;;;;;;10258505;28;20068;-53
2022/03/04 06:48:14;;;;;;;34.08;24.55;;;;;;;;;;10254978;28;20502;-53
2022/03/04 06:53:13;;;;;;;33.50;21.88;;;;;;;;;;10254586;28;20072;-55
2022/03/04 06:58:12;;;;;;;31.95;23.05;;;;;;;;;;10253900;28;20598;-52
2022/03/04 07:03:11;;;;;;;47.20;33.40;;;;;;;;;;10253435;28;20081;-55
2022/03/04 07:08:11;;;;;;;102.53;45.33;;;;;;;;;;10266927;28;20068;-55
2022/03/04 07:13:10;;;;;;;62.13;31.58;;;;;;;;;;10261627;28;20586;-54
2022/03/04 07:18:09;;;;;;;52.53;23.58;;;;;;;;;;10254320;28;20068;-54
2022/03/04 07:23:07;;;;;;;20.42;14.18;;;;;;;;;;10264067;28;20465;-55
2022/03/04 07:28:06;;;;;;;61.08;38.33;;;;;;;;;;10265782;28;20038;-58
2022/03/04 07:33:04;;;;;;;55.15;34.25;;;;;;;;;;10265484;28;20069;-59
2022/03/04 07:38:04;;;;;;;62.00;37.67;;;;;;;;;;10264128;28;20491;-59
2022/03/04 07:43:02;;;;;;;70.00;39.90;;;;;;;;;;10266903;28;20155;-54
2022/03/04 07:48:02;;;;;;;50.17;33.45;;;;;;;;;;10265250;28;20084;-53
2022/03/04 07:53:00;;;;;;;40.92;29.45;;;;;;;;;;10267490;28;20088;-56
2022/03/04 07:58:00;;;;;;;36.63;25.30;;;;;;;;;;10267729;28;20073;-55
2022/03/04 08:02:59;;;;;;;41.75;26.40;;;;;;;;;;10266714;28;20196;-55
2022/03/04 08:07:58;;;;;;;32.10;21.00;;;;;;;;;;10267837;28;20096;-56
2022/03/04 08:12:56;;;;;;;30.85;20.77;;;;;;;;;;10267514;28;20053;-54
2022/03/04 08:17:56;;;;;;;31.77;21.23;;;;;;;;;;10269835;28;20300;-55
2022/03/04 08:22:54;;;;;;;31.23;22.05;;;;;;;;;;10275488;28;20069;-54
2022/03/04 08:27:53;;;;;;;29.05;19.45;;;;;;;;;;10275009;28;20073;-55
2022/03/04 08:32:52;;;;;;;31.05;23.63;;;;;;;;;;10274362;28;20061;-53
2022/03/04 08:37:53;;;;;;;27.50;19.73;;;;;;;;;;10274403;28;20084;-55
2022/03/04 08:42:51;;;;;;;32.38;19.05;;;;;;;;;;10274246;28;20482;-55
2022/03/04 08:47:49;;;;;;;36.08;23.15;;;;;;;;;;10273554;28;20073;-55
2022/03/04 08:52:48;;;;;;;30.05;18.48;;;;;;;;;;10273800;28;20100;-55
2022/03/04 08:57:48;;;;;;;30.65;21.48;;;;;;;;;;10273963;28;20068;-57
2022/03/04 09:02:46;;;;;;;81.72;43.25;;;;;;;;;;10272379;28;20072;-56
2022/03/04 09:07:45;;;;;;;30.75;20.63;;;;;;;;;;10279081;28;20075;-54
2022/03/04 09:12:43;;;;;;;32.70;19.77;;;;;;;;;;10278803;28;20045;-50
2022/03/04 09:17:43;;;;;;;28.85;20.08;;;;;;;;;;10268746;28;20072;-56
2022/03/04 09:22:42;;;;;;;28.85;19.40;;;;;;;;;;10285652;28;20487;-55
2022/03/04 09:27:40;;;;;;;26.05;19.42;;;;;;;;;;10262969;28;20065;-56
2022/03/04 09:32:40;;;;;;;33.97;20.20;;;;;;;;;;10266098;28;20100;-55
2022/03/04 09:37:39;;;;;;;42.88;26.05;;;;;;;;;;10264751;28;20076;-56
2022/03/04 09:42:38;;;;;;;43.67;29.05;;;;;;;;;;10284816;28;20073;-56
2022/03/04 09:47:36;;;;;;;32.65;22.95;;;;;;;;;;10272784;28;20293;-55
2022/03/04 09:52:35;;;;;;;36.75;22.05;;;;;;;;;;10286225;28;20088;-56
2022/03/04 09:57:35;;;;;;;31.60;19.85;;;;;;;;;;10286867;28;20084;-57
2022/03/04 10:02:33;;;;;;;38.63;25.88;;;;;;;;;;10271659;28;20099;-55
2022/03/04 10:07:38;;;;;;;27.90;19.60;;;;;;;;;;10285780;28;20084;-54
2022/03/04 10:12:47;;;;;;;189.90;92.90;;;;;;;;;;10265194;28;20079;-54
2022/03/04 10:17:56;;;;;;;30.95;22.75;;;;;;;;;;10270105;28;20074;-55
2022/03/04 10:22:56;;;;;;;27.48;20.52;;;;;;;;;;10271000;28;20514;-55
2022/03/04 10:28:08;;;;;;;25.27;18.85;;;;;;;;;;10269149;28;20510;-54
2022/03/04 10:33:07;;;;;;;29.55;18.55;;;;;;;;;;10271320;28;20064;-55
2022/03/04 10:38:07;;;;;;;34.42;21.00;;;;;;;;;;10267439;28;20674;-56
2022/03/04 10:43:07;;;;;;;44.78;26.67;;;;;;;;;;10267814;28;20080;-56
2022/03/04 10:48:08;;;;;;;26.08;18.83;;;;;;;;;;10269554;28;20434;-55
2022/03/04 10:53:07;;;;;;;24.55;18.30;;;;;;;;;;10275180;28;20088;-56
2022/03/04 10:58:08;;;;;;;27.42;17.65;;;;;;;;;;10275059;28;20048;-54
2022/03/04 11:03:06;;;;;;;23.10;17.63;;;;;;;;;;10261355;28;20080;-55
2022/03/04 11:08:06;;;;;;;30.25;19.45;;;;;;;;;;10268999;28;20113;-55
2022/03/04 11:13:04;;;;;;;38.30;21.80;;;;;;;;;;10269537;28;20044;-54
2022/03/04 11:18:05;;;;;;;24.13;18.15;;;;;;;;;;10268151;28;20072;-53
2022/03/04 11:23:03;;;;;;;24.58;17.05;;;;;;;;;;10268737;28;20084;-55
2022/03/04 11:28:08;;;;;;;21.73;17.38;;;;;;;;;;10268436;28;20089;-54
2022/03/04 11:33:12;;;;;;;22.08;15.70;;;;;;;;;;10265947;28;20506;-54
2022/03/04 11:38:11;;;;;;;26.10;18.63;;;;;;;;;;10266610;28;20064;-55
2022/03/04 11:43:09;;;;;;;37.63;23.25;;;;;;;;;;10270773;28;20072;-55
2022/03/04 11:48:09;;;;;;;34.08;18.45;;;;;;;;;;10273006;28;20045;-56
2022/03/04 11:53:14;;;;;;;25.45;17.35;;;;;;;;;;10278627;28;20084;-55
2022/03/04 11:58:13;;;;;;;23.67;16.00;;;;;;;;;;10274727;28;20494;-57
2022/03/04 12:03:17;;;;;;;25.15;18.38;;;;;;;;;;10278697;28;20076;-55
2022/03/04 12:08:15;;;;;;;34.83;22.83;;;;;;;;;;10280730;28;20075;-56
2022/03/04 12:13:18;;;;;;;32.28;24.73;;;;;;;;;;10280655;28;20053;-54
2022/03/04 12:18:19;;;;;;;23.15;16.38;;;;;;;;;;10273871;28;20497;-55
2022/03/04 12:23:18;;;;;;;18.75;14.10;;;;;;;;;;10280500;28;20788;-53
2022/03/04 12:28:16;;;;;;;25.58;16.50;;;;;;;;;;10280770;28;20088;-55
2022/03/04 12:33:15;;;;;;;23.45;17.15;;;;;;;;;;10280232;28;20080;-55
2022/03/04 12:38:15;;;;;;;24.50;16.65;;;;;;;;;;10274880;28;20076;-57
2022/03/04 12:43:13;;;;;;;54.38;36.95;;;;;;;;;;10277536;28;20081;-57
2022/03/04 12:48:11;;;;;;;23.33;17.10;;;;;;;;;;10279828;28;20084;-56
2022/03/04 12:53:20;;;;;;;41.33;27.05;;;;;;;;;;10279768;28;20081;-55
2022/03/04 12:58:32;;;;;;;27.77;21.48;;;;;;;;;;10267193;28;20075;-55
2022/03/04 13:03:32;;;;;;;31.63;23.48;;;;;;;;;;10273148;28;20537;-55
2022/03/04 13:08:33;;;;;;;28.50;19.40;;;;;;;;;;10272174;28;20079;-55
2022/03/04 13:13:43;;;;;;;27.65;21.35;;;;;;;;;;10267875;28;20080;-56
2022/03/04 13:18:42;;;;;;;20.67;17.65;;;;;;;;;;10268882;28;20494;-54
2022/03/04 13:23:50;;;;;;;23.27;16.55;;;;;;;;;;10273583;28;20084;-56
2022/03/04 13:28:52;;;;;;;21.92;14.23;;;;;;;;;;10272919;28;20083;-55
2022/03/04 13:33:56;;;;;;;24.08;18.45;;;;;;;;;;10272405;28;20068;-54
2022/03/04 13:39:14;;;;;;;21.65;16.77;;;;;;;;;;10273321;28;20087;-56
2022/03/04 13:44:18;;;;;;;27.95;22.42;;;;;;;;;;10272645;28;20095;-56
2022/03/04 13:49:16;;;;;;;32.05;25.88;;;;;;;;;;10272392;28;20589;-55
2022/03/04 13:54:16;;;;;;;23.50;17.88;;;;;;;;;;10285894;28;20078;-54
2022/03/04 13:59:14;;;;;;;33.88;25.52;;;;;;;;;;10272202;28;20072;-55
2022/03/04 14:04:14;;;;;;;25.85;19.67;;;;;;;;;;10277299;28;20087;-56
2022/03/04 14:09:13;;;;;;;32.72;24.08;;;;;;;;;;10270527;28;20079;-56
2022/03/04 14:14:15;;;;;;;25.50;17.42;;;;;;;;;;10275666;28;20065;-51
2022/03/04 14:19:13;;;;;;;33.83;18.30;;;;;;;;;;10271210;28;20068;-54
2022/03/04 14:24:12;;;;;;;22.30;14.70;;;;;;;;;;10271531;28;20536;-54
2022/03/04 14:29:15;;;;;;;22.58;14.90;;;;;;;;;;10270924;28;20067;-55
2022/03/04 14:34:15;;;;;;;32.65;22.73;;;;;;;;;;10270892;28;20040;-55
2022/03/04 14:39:13;;;;;;;31.23;21.33;;;;;;;;;;10270476;28;20075;-53
2022/03/04 14:44:11;;;;;;;19.27;16.13;;;;;;;;;;10275432;28;20086;-55
2022/03/04 14:49:10;;;;;;;37.88;24.10;;;;;;;;;;10275281;28;20509;-55
2022/03/04 14:54:11;;;;;;;28.98;19.58;;;;;;;;;;10275250;28;20087;-56
2022/03/04 14:59:09;;;;;;;30.02;21.67;;;;;;;;;;10267295;28;20614;-54
2022/03/04 15:04:07;;;;;;;25.02;16.02;;;;;;;;;;10284833;28;20167;-56
2022/03/04 15:09:05;;;;;;;43.00;29.52;;;;;;;;;;10269958;28;20064;-55
2022/03/04 15:14:25;;;;;;;33.15;25.15;;;;;;;;;;10270212;28;20095;-55
2022/03/04 15:19:23;;;;;;;66.78;49.15;;;;;;;;;;10269547;28;20075;-56
2022/03/04 15:24:22;;;;;;;25.55;18.05;;;;;;;;;;10268714;28;20532;-54
2022/03/04 15:29:20;;;;;;;29.05;22.35;;;;;;;;;;10268474;28;20498;-55
2022/03/04 15:34:32;;;;;;;33.08;24.83;;;;;;;;;;10261479;28;20084;-55
2022/03/04 15:39:30;;;;;;;51.45;38.03;;;;;;;;;;10265905;28;20447;-55
2022/03/04 15:44:29;;;;;;;44.90;33.65;;;;;;;;;;10272560;28;20072;-56
2022/03/04 15:49:28;;;;;;;39.00;26.63;;;;;;;;;;10273138;28;20056;-56
2022/03/04 15:54:28;;;;;;;35.72;25.60;;;;;;;;;;10273261;28;20088;-54
2022/03/04 15:59:27;;;;;;;33.60;21.95;;;;;;;;;;10268583;28;20421;-56
2022/03/04 16:04:25;;;;;;;25.40;18.35;;;;;;;;;;10268694;28;20345;-55
2022/03/04 16:09:26;;;;;;;31.42;19.42;;;;;;;;;;10268199;28;20073;-54
2022/03/04 16:14:26;;;;;;;32.10;25.80;;;;;;;;;;10268000;28;20045;-55
2022/03/04 16:19:24;;;;;;;31.38;22.65;;;;;;;;;;10267970;28;20068;-56
2022/03/04 16:24:23;;;;;;;40.65;27.02;;;;;;;;;;10267509;28;20081;-56
2022/03/04 16:29:21;;;;;;;48.42;37.58;;;;;;;;;;10267172;28;20076;-54
2022/03/04 16:34:21;;;;;;;43.42;33.63;;;;;;;;;;10267455;28;20045;-56
2022/03/04 16:39:20;;;;;;;42.45;34.53;;;;;;;;;;10264662;28;20066;-57
2022/03/04 16:44:18;;;;;;;52.92;36.33;;;;;;;;;;10268199;28;20087;-55
2022/03/04 16:49:17;;;;;;;69.03;46.75;;;;;;;;;;10268331;28;20118;-55
2022/03/04 16:54:19;;;;;;;86.78;51.08;;;;;;;;;;10288791;28;20084;-54
2022/03/04 16:59:17;;;;;;;72.80;49.50;;;;;;;;;;10274522;28;20076;-55
2022/03/04 17:04:32;;;;;;;81.65;58.75;;;;;;;;;;10270615;28;20076;-53
2022/03/04 17:09:32;;;;;;;63.80;43.20;;;;;;;;;;10274403;28;20092;-57
2022/03/04 17:14:30;;;;;;;57.08;41.58;;;;;;;;;;10274308;28;20077;-54
2022/03/04 17:19:28;;;;;;;67.45;45.22;;;;;;;;;;10274094;28;20080;-56
2022/03/04 17:24:27;;;;;;;68.57;44.80;;;;;;;;;;10274046;28;20077;-55
2022/03/04 17:29:26;;;;;;;60.67;38.50;;;;;;;;;;10274002;28;20073;-53
2022/03/04 17:34:25;;;;;;;55.67;36.33;;;;;;;;;;10273294;28;20068;-55
2022/03/04 17:39:23;;;;;;;51.25;34.08;;;;;;;;;;10273473;28;20072;-55
2022/03/04 17:44:22;;;;;;;57.90;37.83;;;;;;;;;;10262040;28;20056;-54
2022/03/04 17:49:22;;;;;;;55.33;36.55;;;;;;;;;;10250734;28;20064;-53
2022/03/04 17:54:20;;;;;;;48.70;34.10;;;;;;;;;;10252568;28;20069;-56
2022/03/04 17:59:19;;;;;;;67.97;43.90;;;;;;;;;;10262989;28;20540;-56
2022/03/04 18:04:18;;;;;;;50.63;36.65;;;;;;;;;;10247745;28;20064;-55
2022/03/04 18:09:18;;;;;;;42.60;31.23;;;;;;;;;;10252413;28;20077;-56
2022/03/04 18:14:16;;;;;;;36.05;27.10;;;;;;;;;;10263806;28;20061;-55
2022/03/04 18:19:14;;;;;;;41.63;29.73;;;;;;;;;;10251516;28;20057;-52
2022/03/04 18:24:12;;;;;;;34.33;26.35;;;;;;;;;;10241658;28;20171;-56
2022/03/04 18:29:12;;;;;;;35.88;28.77;;;;;;;;;;10250236;28;20077;-56
2022/03/04 18:34:10;;;;;;;28.63;24.27;;;;;;;;;;10264560;28;20067;-55
2022/03/04 18:44:26;;;;;;;36.08;30.05;;;;;;;;;;10260268;28;20107;-55
2022/03/04 18:49:24;;;;;;;45.83;32.05;;;;;;;;;;10247419;28;20077;-56
2022/03/04 18:54:22;;;;;;;29.30;25.27;;;;;;;;;;10251552;28;20076;-55
2022/03/04 18:59:22;;;;;;;37.03;29.08;;;;;;;;;;10262316;28;20069;-56
2022/03/04 19:04:23;;;;;;;31.70;26.13;;;;;;;;;;10267779;28;20465;-54
2022/03/04 19:09:21;;;;;;;35.75;28.73;;;;;;;;;;10266253;28;20069;-52
2022/03/04 19:14:19;;;;;;;32.05;25.92;;;;;;;;;;10244744;28;20073;-57
2022/03/04 19:19:18;;;;;;;54.30;37.05;;;;;;;;;;10246842;28;20079;-55
2022/03/04 19:24:20;;;;;;;62.63;41.72;;;;;;;;;;10247949;28;20075;-55
2022/03/04 19:29:21;;;;;;;36.75;26.02;;;;;;;;;;10252886;28;20065;-55
2022/03/04 19:34:19;;;;;;;35.65;27.48;;;;;;;;;;10251685;28;20075;-53
2022/03/04 19:39:17;;;;;;;32.42;26.95;;;;;;;;;;10239424;28;20064;-55
2022/03/04 19:44:17;;;;;;;42.88;29.20;;;;;;;;;;10248296;28;20065;-55
2022/03/04 19:49:15;;;;;;;46.42;34.53;;;;;;;;;;10247407;28;20072;-55
2022/03/04 19:54:14;;;;;;;41.45;29.65;;;;;;;;;;10246054;28;20077;-57
2022/03/04 19:59:12;;;;;;;33.63;24.02;;;;;;;;;;10237905;28;20132;-56
2022/03/04 20:04:12;;;;;;;27.60;22.02;;;;;;;;;;10231352;28;20065;-57
2022/03/04 20:09:10;;;;;;;27.77;22.95;;;;;;;;;;10236688;28;20486;-54
2022/03/04 20:14:09;;;;;;;29.17;24.52;;;;;;;;;;10245709;28;20068;-55
2022/03/04 20:19:08;;;;;;;37.28;26.48;;;;;;;;;;10265636;28;20611;-57
2022/03/04 20:24:07;;;;;;;38.53;29.35;;;;;;;;;;10262627;28;20506;-55
2022/03/04 20:29:06;;;;;;;33.75;25.42;;;;;;;;;;10256297;28;20471;-55
2022/03/04 20:34:04;;;;;;;39.65;30.20;;;;;;;;;;10265661;28;20068;-55
2022/03/04 20:39:03;;;;;;;31.30;25.10;;;;;;;;;;10246889;28;20068;-55
2022/03/04 20:44:03;;;;;;;36.80;26.13;;;;;;;;;;10260232;28;20071;-55
2022/03/04 20:49:01;;;;;;;62.13;53.85;;;;;;;;;;10248679;28;20129;-54
2022/03/04 20:54:00;;;;;;;34.03;25.98;;;;;;;;;;10251871;28;20489;-56
2022/03/04 20:58:58;;;;;;;27.92;23.42;;;;;;;;;;10257842;28;20483;-55
2022/03/04 21:03:58;;;;;;;32.08;26.02;;;;;;;;;;10251427;28;20076;-55
2022/03/04 21:08:56;;;;;;;29.42;23.90;;;;;;;;;;10257742;28;20561;-53
2022/03/04 21:13:55;;;;;;;28.17;23.33;;;;;;;;;;10257865;28;20600;-55
2022/03/04 21:18:53;;;;;;;29.20;23.30;;;;;;;;;;10240945;28;20133;-56
2022/03/04 21:23:53;;;;;;;28.38;21.63;;;;;;;;;;10248601;28;20492;-53
2022/03/04 21:28:51;;;;;;;30.83;23.42;;;;;;;;;;10249457;28;20470;-54
2022/03/04 21:33:53;;;;;;;28.88;23.50;;;;;;;;;;10248287;28;20507;-55
2022/03/04 21:38:51;;;;;;;30.67;21.73;;;;;;;;;;10250568;28;20071;-55
2022/03/04 21:43:51;;;;;;;35.05;24.45;;;;;;;;;;10249409;28;20069;-56
2022/03/04 21:48:49;;;;;;;26.73;20.90;;;;;;;;;;10247416;28;20503;-55
2022/03/04 21:53:52;;;;;;;27.98;23.45;;;;;;;;;;10250231;28;20088;-56
2022/03/04 21:58:52;;;;;;;58.15;38.17;;;;;;;;;;10258392;28;20085;-55
2022/03/04 22:03:51;;;;;;;69.68;47.50;;;;;;;;;;10246291;28;20078;-55
2022/03/04 22:08:50;;;;;;;77.32;54.33;;;;;;;;;;10248008;28;20072;-53
2022/03/04 22:13:48;;;;;;;85.28;57.10;;;;;;;;;;10262515;28;20081;-56
2022/03/04 22:18:48;;;;;;;132.75;78.63;;;;;;;;;;10250420;28;20590;-55
2022/03/04 22:23:46;;;;;;;147.95;85.85;;;;;;;;;;10250151;28;20524;-55
2022/03/04 22:28:45;;;;;;;73.13;51.92;;;;;;;;;;10244973;28;20120;-55
2022/03/04 22:33:43;;;;;;;134.80;86.93;;;;;;;;;;10259624;28;20475;-55
2022/03/04 22:38:43;;;;;;;60.13;43.45;;;;;;;;;;10286155;28;20076;-54
2022/03/04 22:43:41;;;;;;;87.90;56.78;;;;;;;;;;10264388;28;20072;-54
2022/03/04 22:48:39;;;;;;;66.90;46.00;;;;;;;;;;10276927;28;20076;-53
2022/03/04 22:53:37;;;;;;;51.33;36.53;;;;;;;;;;10267024;28;20076;-55
2022/03/04 22:58:37;;;;;;;39.60;30.58;;;;;;;;;;10261674;28;20495;-52
2022/03/04 23:08:50;;;;;;;38.13;29.70;;;;;;;;;;10281086;28;20086;-52
2022/03/04 23:13:50;;;;;;;37.25;26.77;;;;;;;;;;10262143;28;20499;-54
2022/03/04 23:18:48;;;;;;;34.95;26.58;;;;;;;;;;10251657;28;20072;-55
2022/03/04 23:23:47;;;;;;;35.97;26.05;;;;;;;;;;10277989;28;20076;-55
2022/03/04 23:28:45;;;;;;;29.90;21.33;;;;;;;;;;10268433;28;20488;-54
2022/03/04 23:33:46;;;;;;;31.60;23.90;;;;;;;;;;10265865;28;20064;-54
2022/03/04 23:38:45;;;;;;;79.53;53.60;;;;;;;;;;10257376;28;20084;-55
2022/03/04 23:43:44;;;;;;;87.20;59.67;;;;;;;;;;10268068;28;20132;-57
2022/03/04 23:48:43;;;;;;;53.22;36.80;;;;;;;;;;10261362;28;20089;-52
2022/03/04 23:53:42;;;;;;;38.22;28.10;;;;;;;;;;10279452;28;20091;-55
2022/03/04 23:58:41;;;;;;;30.77;23.33;;;;;;;;;;10265607;28;20077;-54
